createdAt,value
2023-05-05T00:00:45.241Z,66.44
2023-05-05T00:01:45.253Z,69.51
2023-05-05T00:02:45.339Z,71.76
2023-05-05T00:03:45.339Z,68.64
2023-05-05T00:04:45.239Z,63.50
2023-05-05T00:05:45.256Z,61.42
2023-05-05T00:06:45.249Z,61.82
2023-05-05T00:07:45.261Z,61.76
2023-05-05T00:08:45.266Z,62.31
2023-05-05T00:09:45.284Z,60.57
2023-05-05T00:10:45.302Z,61.24
2023-05-05T00:11:45.288Z,64.45
2023-05-05T00:12:45.322Z,66.33
2023-05-05T00:13:45.299Z,64.30
2023-05-05T00:14:45.300Z,61.92
2023-05-05T00:15:45.308Z,64.23
2023-05-05T00:16:45.342Z,66.62
2023-05-05T00:17:45.384Z,62.58
2023-05-05T00:18:45.345Z,70.91
2023-05-05T00:19:45.358Z,78.65
2023-05-05T00:20:45.385Z,99.48
2023-05-05T00:21:45.360Z,107.54
2023-05-05T00:22:45.388Z,106.02
2023-05-05T00:23:45.371Z,97.99
2023-05-05T00:24:45.388Z,92.06
2023-05-05T00:25:45.420Z,91.69
2023-05-05T00:26:45.406Z,89.10
2023-05-05T00:27:45.419Z,92.49
2023-05-05T00:28:45.425Z,92.77
2023-05-05T00:29:45.427Z,92.30
2023-05-05T00:30:45.477Z,100.85
2023-05-05T00:31:45.476Z,98.32
2023-05-05T00:32:45.546Z,93.81
2023-05-05T00:33:45.491Z,89.04
2023-05-05T00:34:45.481Z,93.33
2023-05-05T00:35:45.499Z,102.17
2023-05-05T00:36:45.508Z,100.44
2023-05-05T00:37:45.529Z,95.52
2023-05-05T00:38:45.553Z,91.02
2023-05-05T00:39:45.554Z,86.35
2023-05-05T00:40:45.586Z,86.73
2023-05-05T00:41:45.566Z,86.88
2023-05-05T00:42:45.581Z,82.38
2023-05-05T00:43:45.600Z,80.82
2023-05-05T00:44:45.596Z,76.30
2023-05-05T00:45:45.587Z,74.34
2023-05-05T00:46:45.688Z,73.42
2023-05-05T00:47:45.658Z,75.75
2023-05-05T00:48:45.648Z,79.77
2023-05-05T00:49:45.635Z,92.15
2023-05-05T00:50:45.646Z,97.36
2023-05-05T00:51:45.646Z,98.18
2023-05-05T00:52:45.655Z,98.28
2023-05-05T00:53:45.655Z,100.34
2023-05-05T00:54:45.662Z,104.73
2023-05-05T00:55:45.673Z,105.31
2023-05-05T00:56:45.691Z,109.53
2023-05-05T00:57:45.679Z,131.75
2023-05-05T00:58:45.703Z,145.20
2023-05-05T00:59:45.673Z,147.75
2023-05-05T01:00:45.698Z,143.61
2023-05-05T01:01:45.720Z,146.88
2023-05-05T01:02:45.791Z,148.92
2023-05-05T01:03:45.804Z,158.84
2023-05-05T01:04:45.693Z,157.12
2023-05-05T01:05:45.674Z,152.17
2023-05-05T01:06:45.696Z,151.99
2023-05-05T01:07:45.696Z,147.18
2023-05-05T01:08:45.682Z,146.00
2023-05-05T01:09:45.683Z,143.93
2023-05-05T01:10:45.696Z,148.03
2023-05-05T01:11:45.674Z,150.85
2023-05-05T01:12:45.716Z,158.15
2023-05-05T01:13:45.696Z,158.14
2023-05-05T01:14:45.712Z,160.74
2023-05-05T01:15:45.695Z,155.80
2023-05-05T01:16:45.681Z,146.86
2023-05-05T01:17:45.690Z,149.29
2023-05-05T01:18:45.676Z,149.79
2023-05-05T01:19:45.669Z,154.89
2023-05-05T01:20:45.675Z,168.01
2023-05-05T01:21:45.665Z,171.11
2023-05-05T01:22:45.665Z,177.19
2023-05-05T01:23:45.711Z,195.61
2023-05-05T01:24:45.737Z,189.31
2023-05-05T01:25:45.724Z,169.75
2023-05-05T01:26:45.719Z,168.71
2023-05-05T01:27:45.726Z,162.86
2023-05-05T01:28:45.709Z,165.04
2023-05-05T01:29:45.710Z,169.28
2023-05-05T01:30:45.695Z,158.71
2023-05-05T01:31:45.740Z,159.30
2023-05-05T01:32:45.833Z,161.86
2023-05-05T01:33:45.710Z,164.90
2023-05-05T01:34:45.703Z,172.54
2023-05-05T01:35:45.787Z,177.64
2023-05-05T01:36:45.724Z,182.28
2023-05-05T01:37:45.716Z,182.39
2023-05-05T01:38:45.742Z,188.00
2023-05-05T01:39:45.747Z,191.55
2023-05-05T01:40:45.768Z,199.62
2023-05-05T01:41:45.733Z,177.15
2023-05-05T01:42:45.754Z,185.17
2023-05-05T01:43:45.774Z,193.58
2023-05-05T01:44:45.800Z,197.28
2023-05-05T01:45:45.879Z,196.92
2023-05-05T01:46:45.833Z,208.06
2023-05-05T01:47:45.902Z,219.84
2023-05-05T01:48:45.865Z,227.47
2023-05-05T01:49:45.869Z,232.06
2023-05-05T01:50:45.900Z,227.14
2023-05-05T01:51:45.907Z,231.72
2023-05-05T01:52:45.926Z,214.40
2023-05-05T01:53:45.934Z,216.06
2023-05-05T01:54:45.937Z,218.57
2023-05-05T01:55:46.005Z,211.31
2023-05-05T01:56:45.982Z,217.78
2023-05-05T01:57:45.999Z,220.60
2023-05-05T01:58:46.057Z,225.16
2023-05-05T01:59:46.085Z,229.02
2023-05-05T02:00:46.100Z,229.48
2023-05-05T02:01:46.135Z,222.29
2023-05-05T02:02:46.204Z,230.65
2023-05-05T02:03:46.154Z,227.11
2023-05-05T02:04:46.217Z,222.70
2023-05-05T02:05:46.264Z,209.46
2023-05-05T02:06:46.274Z,210.76
2023-05-05T02:07:46.291Z,220.33
2023-05-05T02:08:46.305Z,213.68
2023-05-05T02:09:46.343Z,218.93
2023-05-05T02:10:46.376Z,231.01
2023-05-05T02:11:46.401Z,235.12
2023-05-05T02:12:46.441Z,246.71
2023-05-05T02:13:46.476Z,242.10
2023-05-05T02:14:46.445Z,241.59
2023-05-05T02:15:46.505Z,245.71
2023-05-05T02:16:46.458Z,237.90
2023-05-05T02:17:46.498Z,236.60
2023-05-05T02:18:46.480Z,232.68
2023-05-05T02:19:46.480Z,232.78
2023-05-05T02:20:46.530Z,226.74
2023-05-05T02:21:46.542Z,229.29
2023-05-05T02:22:46.612Z,216.40
2023-05-05T02:23:46.619Z,226.96
2023-05-05T02:24:46.617Z,239.42
2023-05-05T02:25:46.659Z,235.21
2023-05-05T02:26:46.683Z,228.19
2023-05-05T02:27:46.735Z,215.18
2023-05-05T02:28:46.738Z,214.73
2023-05-05T02:29:46.740Z,215.07
2023-05-05T02:30:46.837Z,207.71
2023-05-05T02:31:46.928Z,224.68
2023-05-05T02:32:46.921Z,223.09
2023-05-05T02:33:46.906Z,238.24
2023-05-05T02:34:46.920Z,248.84
2023-05-05T02:35:46.962Z,222.97
2023-05-05T02:36:47.033Z,222.35
2023-05-05T02:37:47.027Z,219.05
2023-05-05T02:38:47.054Z,212.67
2023-05-05T02:39:47.093Z,202.42
2023-05-05T02:40:47.119Z,198.96
2023-05-05T02:41:47.161Z,181.49
2023-05-05T02:42:47.205Z,186.92
2023-05-05T02:43:47.237Z,213.51
2023-05-05T02:44:47.262Z,240.52
2023-05-05T02:45:47.287Z,226.42
2023-05-05T02:46:47.382Z,230.75
2023-05-05T02:47:47.361Z,224.72
2023-05-05T02:48:47.345Z,225.68
2023-05-05T02:49:47.360Z,216.49
2023-05-05T02:50:47.401Z,230.30
2023-05-05T02:51:47.402Z,218.06
2023-05-05T02:52:47.457Z,229.57
2023-05-05T02:53:47.482Z,222.20
2023-05-05T02:54:47.494Z,219.35
2023-05-05T02:55:47.538Z,223.99
2023-05-05T02:56:47.574Z,226.78
2023-05-05T02:57:47.592Z,230.22
2023-05-05T02:58:47.666Z,227.77
2023-05-05T02:59:47.662Z,214.21
2023-05-05T03:00:47.697Z,232.68
2023-05-05T03:01:47.829Z,219.06
2023-05-05T03:02:47.973Z,211.47
2023-05-05T03:03:48.057Z,206.64
2023-05-05T03:04:47.896Z,205.77
2023-05-05T03:05:47.921Z,198.40
2023-05-05T03:06:47.964Z,201.92
2023-05-05T03:07:47.999Z,187.59
2023-05-05T03:08:48.033Z,180.73
2023-05-05T03:09:48.077Z,175.36
2023-05-05T03:10:48.143Z,191.42
2023-05-05T03:11:48.285Z,204.67
2023-05-05T03:12:48.301Z,215.73
2023-05-05T03:13:48.281Z,213.97
2023-05-05T03:14:48.322Z,221.39
2023-05-05T03:15:48.390Z,196.04
2023-05-05T03:16:48.370Z,179.19
2023-05-05T03:17:48.422Z,171.93
2023-05-05T03:18:48.460Z,170.77
2023-05-05T03:19:48.466Z,172.42
2023-05-05T03:20:48.564Z,167.17
2023-05-05T03:21:48.569Z,176.28
2023-05-05T03:22:48.603Z,184.03
2023-05-05T03:23:48.670Z,176.34
2023-05-05T03:24:48.706Z,182.79
2023-05-05T03:25:48.793Z,178.18
2023-05-05T03:26:48.830Z,173.79
2023-05-05T03:27:48.903Z,190.42
2023-05-05T03:28:48.951Z,196.70
2023-05-05T03:29:48.996Z,191.64
2023-05-05T03:30:49.071Z,185.49
2023-05-05T03:31:49.134Z,190.06
2023-05-05T03:32:49.162Z,196.73
2023-05-05T03:33:49.183Z,199.88
2023-05-05T03:34:49.208Z,201.99
2023-05-05T03:35:49.313Z,204.90
2023-05-05T03:36:49.326Z,198.40
2023-05-05T03:37:49.370Z,197.22
2023-05-05T03:38:49.397Z,208.87
2023-05-05T03:39:49.432Z,204.72
2023-05-05T03:40:49.540Z,214.29
2023-05-05T03:41:49.550Z,224.51
2023-05-05T03:42:49.603Z,226.54
2023-05-05T03:43:49.611Z,228.38
2023-05-05T03:44:49.669Z,228.72
2023-05-05T03:45:49.711Z,227.43
2023-05-05T03:46:49.703Z,227.24
2023-05-05T03:47:49.804Z,220.34
2023-05-05T03:48:49.771Z,205.49
2023-05-05T03:49:49.824Z,203.39
2023-05-05T03:50:49.869Z,194.73
2023-05-05T03:51:49.904Z,184.73
2023-05-05T03:52:49.932Z,185.41
2023-05-05T03:53:49.963Z,192.73
2023-05-05T03:54:49.979Z,187.41
2023-05-05T03:55:50.023Z,193.83
2023-05-05T03:56:50.071Z,198.16
2023-05-05T03:57:50.125Z,195.96
2023-05-05T03:58:50.122Z,191.57
2023-05-05T03:59:50.180Z,193.63
2023-05-05T04:00:50.196Z,198.17
2023-05-05T04:01:50.217Z,193.71
2023-05-05T04:02:50.329Z,188.13
2023-05-05T04:03:50.302Z,189.19
2023-05-05T04:04:50.300Z,194.96
2023-05-05T04:05:50.334Z,189.54
2023-05-05T04:06:50.346Z,187.01
2023-05-05T04:07:50.370Z,177.78
2023-05-05T04:08:50.377Z,172.20
2023-05-05T04:09:50.383Z,163.32
2023-05-05T04:10:50.412Z,163.48
2023-05-05T04:11:50.408Z,146.14
2023-05-05T04:12:50.459Z,140.51
2023-05-05T04:13:50.472Z,139.71
2023-05-05T04:14:50.519Z,142.67
2023-05-05T04:15:50.549Z,149.16
2023-05-05T04:16:50.575Z,150.29
2023-05-05T04:17:50.694Z,160.17
2023-05-05T04:18:50.626Z,163.98
2023-05-05T04:19:50.648Z,175.22
2023-05-05T04:20:50.665Z,179.81
2023-05-05T04:21:50.704Z,179.57
2023-05-05T04:22:52.657Z,175.53
2023-05-05T04:23:50.757Z,175.08
2023-05-05T04:24:50.757Z,158.74
2023-05-05T04:25:50.780Z,151.33
2023-05-05T04:26:50.810Z,145.91
2023-05-05T04:27:50.840Z,126.92
2023-05-05T04:28:50.847Z,132.64
2023-05-05T04:29:50.866Z,130.52
2023-05-05T04:30:50.890Z,123.90
2023-05-05T04:31:50.937Z,118.20
2023-05-05T04:32:51.020Z,115.03
2023-05-05T04:33:50.977Z,105.47
2023-05-05T04:34:51.019Z,106.79
2023-05-05T04:35:51.032Z,107.39
2023-05-05T04:36:51.090Z,109.82
2023-05-05T04:37:51.121Z,105.73
2023-05-05T04:38:51.201Z,108.17
2023-05-05T04:39:51.178Z,106.99
2023-05-05T04:40:51.216Z,112.76
2023-05-05T04:41:51.234Z,107.20
2023-05-05T04:42:51.280Z,104.61
2023-05-05T04:43:51.282Z,96.59
2023-05-05T04:44:51.309Z,97.36
2023-05-05T04:45:51.354Z,104.24
2023-05-05T04:46:51.403Z,107.54
2023-05-05T04:47:51.524Z,103.89
2023-05-05T04:48:51.431Z,104.85
2023-05-05T04:49:51.496Z,112.14
2023-05-05T04:50:51.503Z,110.59
2023-05-05T04:51:51.560Z,103.12
2023-05-05T04:52:52.666Z,101.32
2023-05-05T04:53:51.637Z,93.98
2023-05-05T04:54:51.702Z,93.33
2023-05-05T04:55:51.743Z,94.92
2023-05-05T04:56:51.768Z,91.98
2023-05-05T04:57:51.868Z,95.48
2023-05-05T04:58:51.843Z,93.40
2023-05-05T04:59:51.878Z,95.44
2023-05-05T05:00:51.919Z,100.13
2023-05-05T05:01:52.011Z,102.34
2023-05-05T05:02:52.102Z,108.22
2023-05-05T05:03:52.208Z,117.58
2023-05-05T05:04:52.167Z,123.32
2023-05-05T05:05:52.223Z,126.12
2023-05-05T05:06:52.269Z,120.24
2023-05-05T05:07:52.351Z,121.23
2023-05-05T05:08:52.391Z,122.39
2023-05-05T05:09:52.466Z,126.57
2023-05-05T05:10:52.552Z,127.38
2023-05-05T05:11:52.599Z,140.90
2023-05-05T05:12:52.717Z,150.98
2023-05-05T05:13:52.715Z,154.23
2023-05-05T05:14:52.776Z,161.52
2023-05-05T05:15:52.826Z,171.47
2023-05-05T05:16:53.012Z,174.66
2023-05-05T05:17:52.986Z,183.89
2023-05-05T05:18:53.001Z,196.83
2023-05-05T05:19:53.029Z,203.66
2023-05-05T05:20:53.077Z,217.18
2023-05-05T05:21:53.132Z,234.14
2023-05-05T05:22:53.180Z,256.76
2023-05-05T05:23:53.251Z,282.18
2023-05-05T05:24:53.280Z,284.99
2023-05-05T05:25:53.345Z,284.75
2023-05-05T05:26:53.388Z,295.75
2023-05-05T05:28:06.094Z,295.77
2023-05-05T05:28:54.454Z,296.42
2023-05-05T05:29:53.457Z,296.15
2023-05-05T05:30:53.444Z,299.94
2023-05-05T05:31:53.440Z,242.29
2023-05-05T05:32:53.440Z,172.88
2023-05-05T05:33:53.405Z,143.37
2023-05-05T05:34:53.408Z,128.74
2023-05-05T05:35:53.385Z,128.15
2023-05-05T05:36:53.383Z,135.69
2023-05-05T05:37:53.370Z,144.18
2023-05-05T05:38:53.754Z,137.71
2023-05-05T05:39:53.364Z,161.43
2023-05-05T05:40:53.354Z,173.78
2023-05-05T05:41:53.348Z,172.01
2023-05-05T05:42:53.359Z,177.43
2023-05-05T05:43:53.334Z,185.14
2023-05-05T05:44:53.340Z,177.37
2023-05-05T05:45:53.376Z,173.17
2023-05-05T05:46:53.381Z,150.98
2023-05-05T05:47:53.446Z,140.82
2023-05-05T05:48:53.397Z,121.27
2023-05-05T05:49:53.388Z,116.87
2023-05-05T05:50:53.441Z,99.04
2023-05-05T05:51:53.416Z,101.98
2023-05-05T05:52:53.389Z,106.86
2023-05-05T05:53:53.415Z,126.39
2023-05-05T05:54:53.428Z,124.65
2023-05-05T05:55:53.475Z,167.82
2023-05-05T05:56:53.537Z,191.29
2023-05-05T05:57:53.581Z,210.99
2023-05-05T05:58:53.653Z,224.33
2023-05-05T05:59:53.690Z,229.73
2023-05-05T06:00:53.754Z,217.59
2023-05-05T06:01:53.792Z,236.33
2023-05-05T06:02:53.930Z,221.54
2023-05-05T06:03:54.379Z,212.56
2023-05-05T06:04:53.882Z,229.46
2023-05-05T06:05:53.915Z,215.27
2023-05-05T06:06:53.947Z,225.51
2023-05-05T06:07:54.048Z,235.14
2023-05-05T06:08:54.027Z,230.37
2023-05-05T06:09:54.068Z,234.88
2023-05-05T06:10:54.076Z,255.08
2023-05-05T06:11:54.112Z,275.14
2023-05-05T06:12:54.191Z,295.28
2023-05-05T06:13:54.167Z,295.98
2023-05-05T06:14:54.178Z,311.33
2023-05-05T06:15:54.237Z,312.28
2023-05-05T06:16:54.193Z,336.52
2023-05-05T06:17:54.248Z,332.20
2023-05-05T06:18:54.309Z,333.78
2023-05-05T06:19:54.608Z,336.22
2023-05-05T06:20:54.253Z,342.22
2023-05-05T06:21:54.269Z,337.79
2023-05-05T06:22:54.273Z,340.11
2023-05-05T06:23:54.276Z,322.44
2023-05-05T06:24:54.285Z,322.63
2023-05-05T06:25:54.276Z,308.79
2023-05-05T06:26:54.271Z,297.60
2023-05-05T06:27:54.280Z,308.49
2023-05-05T06:28:54.332Z,307.73
2023-05-05T06:29:54.277Z,308.18
2023-05-05T06:30:54.294Z,274.07
2023-05-05T06:31:54.309Z,269.47
2023-05-05T06:32:54.394Z,145.25
2023-05-05T06:33:54.296Z,91.28
2023-05-05T06:34:54.311Z,72.18
2023-05-05T06:35:54.344Z,70.41
2023-05-05T06:36:54.472Z,84.76
2023-05-05T06:37:54.399Z,89.42
2023-05-05T06:38:54.427Z,107.52
2023-05-05T06:39:54.452Z,122.15
2023-05-05T06:40:54.482Z,146.11
2023-05-05T06:41:54.505Z,156.51
2023-05-05T06:42:54.529Z,160.40
2023-05-05T06:43:54.786Z,168.81
2023-05-05T06:44:54.571Z,171.66
2023-05-05T06:45:54.595Z,179.82
2023-05-05T06:46:54.802Z,170.74
2023-05-05T06:47:54.610Z,168.83
2023-05-05T06:48:54.591Z,177.31
2023-05-05T06:49:54.610Z,188.46
2023-05-05T06:50:54.654Z,135.31
2023-05-05T06:51:54.720Z,106.19
2023-05-05T06:52:54.759Z,79.95
2023-05-05T06:53:55.290Z,54.02
2023-05-05T06:54:54.800Z,51.72
2023-05-05T06:55:55.006Z,50.62
2023-05-05T06:56:54.833Z,65.40
2023-05-05T06:57:54.826Z,60.02
2023-05-05T06:58:54.852Z,50.79
2023-05-05T06:59:54.850Z,40.40
2023-05-05T07:00:54.982Z,51.02
2023-05-05T07:01:54.874Z,52.91
2023-05-05T07:02:54.918Z,60.89
2023-05-05T07:03:54.949Z,25.36
2023-05-05T07:04:54.964Z,12.25
2023-05-05T07:05:55.024Z,8.21
2023-05-05T07:06:55.068Z,6.20
2023-05-05T07:07:55.116Z,4.91
2023-05-05T07:08:55.407Z,4.02
2023-05-05T07:09:55.086Z,5.17
2023-05-05T07:10:55.116Z,8.36
2023-05-05T07:11:55.353Z,8.40
2023-05-05T07:12:55.267Z,11.64
2023-05-05T07:13:55.282Z,11.07
2023-05-05T07:14:55.323Z,10.96
2023-05-05T07:15:55.313Z,15.09
2023-05-05T07:16:55.455Z,16.96
2023-05-05T07:17:55.476Z,16.38
2023-05-05T07:18:55.417Z,17.25
2023-05-05T07:19:55.409Z,17.76
2023-05-05T07:20:55.422Z,21.56
2023-05-05T07:21:55.451Z,24.30
2023-05-05T07:22:55.468Z,26.22
2023-05-05T07:23:55.454Z,26.17
2023-05-05T07:24:55.472Z,27.65
2023-05-05T07:25:55.458Z,27.43
2023-05-05T07:26:55.455Z,22.92
2023-05-05T07:27:55.666Z,29.77
2023-05-05T07:29:23.149Z,0.50
2023-05-05T07:30:23.219Z,0.50
2023-05-05T07:31:22.963Z,0.50
2023-05-05T07:32:23.224Z,0.50
2023-05-05T07:33:22.931Z,0.50
2023-05-05T07:34:22.944Z,0.57
2023-05-05T07:35:22.919Z,0.65
2023-05-05T07:36:22.918Z,0.73
2023-05-05T07:37:23.002Z,0.83
2023-05-05T07:38:22.896Z,0.90
2023-05-05T07:39:22.909Z,0.92
2023-05-05T07:40:22.905Z,0.98
2023-05-05T07:41:22.887Z,1.04
2023-05-05T07:42:22.900Z,1.10
2023-05-05T07:43:22.926Z,1.09
2023-05-05T07:44:22.876Z,1.07
2023-05-05T07:45:22.878Z,1.06
2023-05-05T07:46:22.911Z,1.09
2023-05-05T07:47:22.877Z,1.15
2023-05-05T07:48:22.838Z,1.07
2023-05-05T07:49:23.147Z,1.08
2023-05-05T07:50:22.847Z,1.09
2023-05-05T07:51:22.819Z,1.12
2023-05-05T07:52:33.211Z,1.10
2023-05-05T07:53:23.835Z,1.10
2023-05-05T07:54:23.139Z,1.11
2023-05-05T07:55:22.797Z,1.11
2023-05-05T07:56:22.803Z,1.09
2023-05-05T07:57:22.786Z,1.08
2023-05-05T07:58:22.790Z,1.06
2023-05-05T07:59:23.207Z,1.07
2023-05-05T08:00:22.793Z,1.05
2023-05-05T08:01:22.779Z,1.06
2023-05-05T08:02:22.846Z,1.04
2023-05-05T08:03:22.947Z,1.05
2023-05-05T08:04:22.799Z,1.02
2023-05-05T08:05:22.746Z,1.00
2023-05-05T08:06:22.735Z,1.02
2023-05-05T08:07:22.726Z,1.05
2023-05-05T08:08:22.749Z,1.04
2023-05-05T08:09:23.180Z,1.09
2023-05-05T08:10:22.755Z,1.11
2023-05-05T08:11:22.785Z,1.17
2023-05-05T08:12:22.836Z,1.11
2023-05-05T08:13:22.919Z,1.13
2023-05-05T08:14:22.919Z,1.09
2023-05-05T08:15:22.993Z,1.14
2023-05-05T08:16:22.999Z,1.10
2023-05-05T08:17:23.121Z,1.13
2023-05-05T08:18:22.974Z,1.12
2023-05-05T08:19:29.292Z,1.12
2023-05-05T08:20:24.002Z,1.02
2023-05-05T08:21:22.972Z,0.98
2023-05-05T08:22:22.986Z,0.80
2023-05-05T08:23:22.984Z,0.80
2023-05-05T08:24:23.167Z,0.34
2023-05-05T08:25:22.956Z,0.34
2023-05-05T08:26:22.992Z,0.34
2023-05-05T08:27:22.926Z,0.34
2023-05-05T08:28:22.936Z,0.34
2023-05-05T08:29:22.924Z,0.34
2023-05-05T08:30:22.906Z,0.34
2023-05-05T08:31:23.034Z,0.34
2023-05-05T08:32:22.964Z,0.34
2023-05-05T08:33:23.032Z,0.34
2023-05-05T08:34:23.088Z,0.34
2023-05-05T08:35:23.140Z,0.34
2023-05-05T08:36:23.188Z,0.34
2023-05-05T08:37:23.246Z,0.34
2023-05-05T08:38:23.291Z,0.34
2023-05-05T08:39:23.329Z,0.34
2023-05-05T08:40:23.438Z,0.34
2023-05-05T08:41:23.418Z,0.34
2023-05-05T08:42:36.112Z,0.35
2023-05-05T08:43:24.454Z,0.35
2023-05-05T08:44:23.452Z,0.38
2023-05-05T08:45:23.460Z,0.45
2023-05-05T08:46:23.463Z,0.64
2023-05-05T08:47:23.822Z,0.94
2023-05-05T08:48:23.421Z,0.66
2023-05-05T08:49:23.430Z,0.53
2023-05-05T08:50:23.422Z,0.50
2023-05-05T08:51:23.403Z,0.57
2023-05-05T08:52:23.471Z,0.75
2023-05-05T08:53:23.402Z,1.11
2023-05-05T08:54:23.712Z,1.78
2023-05-05T08:55:23.376Z,0.84
2023-05-05T08:56:23.364Z,0.82
2023-05-05T08:57:23.381Z,0.57
2023-05-05T08:58:23.387Z,0.50
2023-05-05T08:59:23.373Z,0.56
2023-05-05T09:00:23.414Z,0.55
2023-05-05T09:01:23.412Z,0.49
2023-05-05T09:02:23.388Z,0.48
2023-05-05T09:03:23.509Z,0.50
2023-05-05T09:04:23.477Z,0.50
2023-05-05T09:05:23.315Z,0.62
2023-05-05T09:06:23.332Z,0.65
2023-05-05T09:07:23.348Z,0.81
2023-05-05T09:08:23.355Z,1.07
2023-05-05T09:09:23.348Z,1.50
2023-05-05T09:10:23.370Z,1.79
2023-05-05T09:11:23.376Z,1.59
2023-05-05T09:12:23.389Z,2.30
2023-05-05T09:13:23.390Z,3.79
2023-05-05T09:14:23.406Z,5.73
2023-05-05T09:15:23.381Z,3.17
2023-05-05T09:16:23.423Z,1.94
2023-05-05T09:17:23.413Z,1.35
2023-05-05T09:18:23.381Z,1.33
2023-05-05T09:19:23.458Z,1.80
2023-05-05T09:20:23.392Z,1.59
2023-05-05T09:21:23.380Z,1.57
2023-05-05T09:22:23.414Z,1.99
2023-05-05T09:23:23.419Z,2.68
2023-05-05T09:24:23.481Z,2.38
2023-05-05T09:25:23.501Z,1.76
2023-05-05T09:26:23.510Z,1.26
2023-05-05T09:27:23.552Z,1.11
2023-05-05T09:28:23.524Z,2.13
2023-05-05T09:29:23.522Z,1.96
2023-05-05T09:30:23.543Z,1.47
2023-05-05T09:31:23.616Z,1.79
2023-05-05T09:32:23.712Z,0.91
2023-05-05T09:33:23.696Z,1.12
2023-05-05T09:34:23.640Z,1.75
2023-05-05T09:35:23.734Z,2.30
2023-05-05T09:36:23.694Z,2.91
2023-05-05T09:37:23.715Z,5.64
2023-05-05T09:38:24.224Z,8.33
2023-05-05T09:39:23.785Z,9.68
2023-05-05T09:40:23.801Z,11.58
2023-05-05T09:41:23.842Z,12.40
2023-05-05T09:42:23.863Z,13.51
2023-05-05T09:43:23.895Z,15.00
2023-05-05T09:44:23.903Z,16.47
2023-05-05T09:45:23.930Z,17.18
2023-05-05T09:46:23.980Z,17.85
2023-05-05T09:47:29.860Z,17.88
2023-05-05T09:48:24.988Z,17.91
2023-05-05T09:49:23.960Z,18.25
2023-05-05T09:50:23.957Z,19.49
2023-05-05T09:51:24.003Z,21.82
2023-05-05T09:52:23.931Z,25.52
2023-05-05T09:53:23.934Z,30.34
2023-05-05T09:54:23.932Z,33.48
2023-05-05T09:55:23.909Z,37.96
2023-05-05T09:56:23.907Z,40.98
2023-05-05T09:57:23.903Z,45.02
2023-05-05T09:58:24.014Z,49.97
2023-05-05T09:59:23.903Z,48.78
2023-05-05T10:00:23.886Z,48.00
2023-05-05T10:01:23.957Z,49.55
2023-05-05T10:02:23.874Z,46.71
2023-05-05T10:03:23.864Z,44.87
2023-05-05T10:04:24.255Z,41.66
2023-05-05T10:05:23.876Z,40.00
2023-05-05T10:06:23.840Z,29.02
2023-05-05T10:07:23.909Z,26.50
2023-05-05T10:08:23.838Z,27.36
2023-05-05T10:09:23.894Z,24.03
2023-05-05T10:10:23.824Z,24.94
2023-05-05T10:11:23.806Z,26.02
2023-05-05T10:12:23.800Z,28.45
2023-05-05T10:13:23.833Z,29.08
2023-05-05T10:14:23.858Z,31.79
2023-05-05T10:15:23.799Z,31.89
2023-05-05T10:16:23.825Z,31.30
2023-05-05T10:17:23.790Z,28.71
2023-05-05T10:18:23.826Z,28.33
2023-05-05T10:19:23.822Z,27.25
2023-05-05T10:20:23.764Z,25.72
2023-05-05T10:21:23.773Z,22.91
2023-05-05T10:22:23.749Z,13.53
2023-05-05T10:23:23.824Z,7.92
2023-05-05T10:24:24.216Z,6.49
2023-05-05T10:25:23.769Z,4.82
2023-05-05T10:26:23.768Z,2.27
2023-05-05T10:27:23.791Z,2.29
2023-05-05T10:28:23.820Z,2.33
2023-05-05T10:29:23.855Z,2.65
2023-05-05T10:30:23.840Z,3.41
2023-05-05T10:31:26.560Z,4.56
2023-05-05T10:32:50.966Z,5.56
2023-05-05T10:33:30.768Z,5.61
2023-05-05T10:34:24.896Z,5.63
2023-05-05T10:35:23.831Z,6.04
2023-05-05T10:36:24.720Z,7.28
2023-05-05T10:37:23.808Z,9.71
2023-05-05T10:38:25.541Z,14.79
2023-05-05T10:39:23.876Z,5.77
2023-05-05T10:40:23.789Z,6.66
2023-05-05T10:41:23.816Z,8.92
2023-05-05T10:42:23.788Z,14.02
2023-05-05T10:43:23.811Z,26.26
2023-05-05T10:44:23.817Z,30.42
2023-05-05T10:45:23.821Z,33.23
2023-05-05T10:46:23.838Z,33.96
2023-05-05T10:47:23.801Z,36.42
2023-05-05T10:48:23.783Z,35.59
2023-05-05T10:49:23.778Z,36.78
2023-05-05T10:50:23.737Z,34.58
2023-05-05T10:51:35.113Z,30.90
2023-05-05T10:52:24.735Z,28.97
2023-05-05T10:53:23.726Z,27.31
2023-05-05T10:54:23.818Z,27.11
2023-05-05T10:55:23.702Z,26.09
2023-05-05T10:56:23.696Z,24.46
2023-05-05T10:57:23.716Z,24.34
2023-05-05T10:58:23.697Z,21.64
2023-05-05T10:59:23.674Z,19.47
2023-05-05T11:00:23.678Z,18.58
2023-05-05T11:01:23.695Z,18.18
2023-05-05T11:02:23.765Z,16.89
2023-05-05T11:03:23.744Z,14.15
2023-05-05T11:04:23.649Z,13.88
2023-05-05T11:05:23.637Z,13.57
2023-05-05T11:06:23.642Z,12.84
2023-05-05T11:07:23.636Z,12.67
2023-05-05T11:08:23.614Z,12.81
2023-05-05T11:09:23.627Z,9.86
2023-05-05T11:10:23.666Z,7.67
2023-05-05T11:11:23.753Z,6.66
2023-05-05T11:12:23.611Z,6.58
2023-05-05T11:13:23.724Z,6.87
2023-05-05T11:14:23.605Z,6.97
2023-05-05T11:15:23.764Z,7.96
2023-05-05T11:16:23.644Z,8.55
2023-05-05T11:17:23.574Z,8.56
2023-05-05T11:18:23.570Z,4.46
2023-05-05T11:19:23.553Z,3.94
2023-05-05T11:20:23.734Z,3.45
2023-05-05T11:21:23.574Z,5.57
2023-05-05T11:22:23.544Z,9.01
2023-05-05T11:23:23.529Z,12.70
2023-05-05T11:24:23.545Z,16.21
2023-05-05T11:25:23.552Z,19.46
2023-05-05T11:26:23.583Z,26.45
2023-05-05T11:27:23.788Z,21.71
2023-05-05T11:28:23.664Z,7.55
2023-05-05T11:29:23.688Z,7.82
2023-05-05T11:30:23.703Z,10.15
2023-05-05T11:31:23.767Z,8.04
2023-05-05T11:32:23.817Z,7.60
2023-05-05T11:33:23.839Z,8.82
2023-05-05T11:34:23.875Z,6.55
2023-05-05T11:35:23.949Z,6.51
2023-05-05T11:36:24.000Z,10.61
2023-05-05T11:37:24.014Z,7.01
2023-05-05T11:38:24.063Z,7.29
2023-05-05T11:39:24.108Z,17.41
2023-05-05T11:40:24.150Z,31.38
2023-05-05T11:41:24.204Z,31.72
2023-05-05T11:42:24.255Z,29.81
2023-05-05T11:43:24.406Z,38.67
2023-05-05T11:44:24.335Z,42.44
2023-05-05T11:45:24.399Z,43.42
2023-05-05T11:46:24.469Z,47.71
2023-05-05T11:47:24.456Z,46.97
2023-05-05T11:48:24.483Z,49.94
2023-05-05T11:49:24.534Z,49.41
2023-05-05T11:50:24.588Z,52.81
2023-05-05T11:51:24.617Z,53.96
2023-05-05T11:52:24.657Z,53.03
2023-05-05T11:53:24.689Z,51.70
2023-05-05T11:54:24.745Z,52.64
2023-05-05T11:55:24.789Z,51.28
2023-05-05T11:56:24.821Z,52.55
2023-05-05T11:57:24.858Z,54.42
2023-05-05T11:58:24.923Z,55.86
2023-05-05T11:59:25.048Z,57.20
2023-05-05T12:00:24.999Z,55.24
2023-05-05T12:01:25.044Z,57.10
2023-05-05T12:02:25.191Z,58.95
2023-05-05T12:03:25.315Z,56.45
2023-05-05T12:04:25.206Z,56.66
2023-05-05T12:05:25.231Z,56.42
2023-05-05T12:06:25.297Z,55.38
2023-05-05T12:07:25.319Z,54.11
2023-05-05T12:08:25.363Z,54.97
2023-05-05T12:09:25.406Z,56.84
2023-05-05T12:10:25.426Z,58.35
2023-05-05T12:11:25.430Z,60.20
2023-05-05T12:12:25.426Z,58.97
2023-05-05T12:13:25.482Z,58.09
2023-05-05T12:14:25.446Z,55.20
2023-05-05T12:15:25.456Z,51.52
2023-05-05T12:16:25.491Z,53.68
2023-05-05T12:17:25.486Z,54.29
2023-05-05T12:18:25.483Z,56.13
2023-05-05T12:19:25.494Z,59.30
2023-05-05T12:20:25.521Z,52.06
2023-05-05T12:21:25.564Z,44.86
2023-05-05T12:22:25.657Z,50.93
2023-05-05T12:23:25.673Z,51.44
2023-05-05T12:24:25.716Z,52.14
2023-05-05T12:25:25.778Z,52.26
2023-05-05T12:26:25.843Z,48.09
2023-05-05T12:27:25.925Z,43.74
2023-05-05T12:28:25.960Z,41.52
2023-05-05T12:29:25.995Z,45.71
2023-05-05T12:30:26.103Z,46.34
2023-05-05T12:31:26.250Z,50.21
2023-05-05T12:32:26.200Z,47.55
2023-05-05T12:33:26.229Z,42.33
2023-05-05T12:34:26.273Z,41.57
2023-05-05T12:35:26.365Z,41.66
2023-05-05T12:36:27.243Z,40.83
2023-05-05T12:37:26.443Z,34.59
2023-05-05T12:38:26.473Z,32.15
2023-05-05T12:39:26.520Z,31.31
2023-05-05T12:40:26.565Z,30.26
2023-05-05T12:41:26.627Z,23.06
2023-05-05T12:42:26.677Z,15.28
2023-05-05T12:43:26.713Z,17.18
2023-05-05T12:44:26.769Z,16.55
2023-05-05T12:45:26.819Z,17.09
2023-05-05T12:46:26.873Z,11.91
2023-05-05T12:47:27.034Z,13.72
2023-05-05T12:48:26.955Z,15.56